Porter, Oklahoma
Current Conditions -  °F | °C
As of 6:53 AM on Sunday 23 Nov 2014 (Local Time) from KMKO Reporting Station
Haze Haze  
Wind Chill: 55°   Ceiling: 1600
Heat Index: 55°   Visibility: 5mi
Dew Point: 54°   Wind: 7mph
Humidity: 96%   Direction: 150°SSE
Pressure: 29.57"   Gusts: NA
Location:  35.87°N, 95.52°W
Report Text: KMKO 231253Z AUTO 15006KT 5SM BR OVC016 13/12 A2957 RMK AO2 SLP010 T01280122
Loading
Personal Weather Stations






























Interactive Weather Map New forecast layout! Learn more

10-Day Weather Forecast

Advertisements
Track Severe Weather on mobile